createdAt,value
2023-05-07T00:01:35.588Z,98082.25
2023-05-07T00:04:05.934Z,98090.09
2023-05-07T00:06:36.907Z,98083.00
2023-05-07T00:09:07.326Z,98081.75
2023-05-07T00:11:40.290Z,98079.47
2023-05-07T00:14:10.409Z,98083.75
2023-05-07T00:16:40.703Z,98072.91
2023-05-07T00:19:10.914Z,98080.50
2023-05-07T00:21:41.406Z,98082.50
2023-05-07T00:24:11.754Z,98081.53
2023-05-07T00:26:44.694Z,98077.50
2023-05-07T00:29:15.257Z,98089.91
2023-05-07T00:31:45.731Z,98086.34
2023-05-07T00:34:15.953Z,98081.75
2023-05-07T00:36:46.175Z,98083.28
2023-05-07T00:39:16.410Z,98080.22
2023-05-07T00:41:49.328Z,98069.81
2023-05-07T00:44:19.754Z,98076.69
2023-05-07T00:46:51.187Z,98076.69
2023-05-07T00:49:22.777Z,98080.66
2023-05-07T00:51:54.253Z,98085.44
2023-05-07T00:54:25.176Z,98076.63
2023-05-07T00:56:59.012Z,98076.31
2023-05-07T00:59:29.302Z,98080.34
2023-05-07T01:01:59.537Z,98077.09
2023-05-07T01:04:30.932Z,98079.88
2023-05-07T01:07:02.780Z,98064.34
2023-05-07T01:09:33.855Z,98071.72
2023-05-07T01:12:07.763Z,98080.06
2023-05-07T01:14:38.731Z,98076.53
2023-05-07T01:17:09.630Z,98088.16
2023-05-07T01:19:40.030Z,98089.88
2023-05-07T01:22:12.986Z,98084.31
2023-05-07T01:24:55.368Z,98090.38
2023-05-07T01:27:25.786Z,98082.78
2023-05-07T01:29:56.779Z,98085.31
2023-05-07T01:32:33.283Z,98079.75
2023-05-07T01:35:11.909Z,98081.28
2023-05-07T01:37:45.636Z,98071.88
2023-05-07T01:40:18.927Z,98072.88
2023-05-07T01:42:52.252Z,98080.41
2023-05-07T01:45:22.616Z,98073.78
2023-05-07T01:47:53.729Z,98076.03
2023-05-07T01:50:27.337Z,98072.19
2023-05-07T01:52:57.862Z,98073.16
2023-05-07T01:55:33.820Z,98084.78
2023-05-07T01:58:04.241Z,98079.97
2023-05-07T02:00:34.612Z,98085.72
2023-05-07T02:03:05.021Z,98085.94
2023-05-07T02:05:43.520Z,98081.84
2023-05-07T02:08:20.842Z,98083.78
2023-05-07T02:10:55.108Z,98091.38
2023-05-07T02:13:26.191Z,98089.06
2023-05-07T02:15:56.732Z,98091.06
2023-05-07T02:18:28.403Z,98090.81
2023-05-07T02:20:58.628Z,98094.84
2023-05-07T02:23:29.025Z,98105.19
2023-05-07T02:26:01.854Z,98097.63
2023-05-07T02:28:32.495Z,98100.59
2023-05-07T02:31:06.947Z,98103.28
2023-05-07T02:33:38.459Z,98101.19
2023-05-07T02:36:11.914Z,98096.41
2023-05-07T02:39:04.050Z,98091.03
2023-05-07T02:41:36.944Z,98087.88
2023-05-07T02:44:07.456Z,98095.47
2023-05-07T02:46:37.913Z,98095.16
2023-05-07T02:49:12.473Z,98100.06
2023-05-07T02:51:42.716Z,98099.47
2023-05-07T02:54:17.160Z,98095.16
2023-05-07T02:56:50.499Z,98094.22
2023-05-07T02:59:20.743Z,98099.78
2023-05-07T03:01:53.187Z,98104.88
2023-05-07T03:04:23.420Z,98101.31
2023-05-07T03:06:53.670Z,98108.41
2023-05-07T03:09:24.129Z,98112.16
2023-05-07T03:11:56.854Z,98103.50
2023-05-07T03:14:27.321Z,98098.94
2023-05-07T03:16:57.762Z,98097.09
2023-05-07T03:19:28.316Z,98101.72
2023-05-07T03:21:58.636Z,98090.88
2023-05-07T03:24:28.848Z,98091.53
2023-05-07T03:27:02.327Z,98099.13
2023-05-07T03:29:33.152Z,98094.03
2023-05-07T03:32:03.302Z,98095.75
2023-05-07T03:34:33.625Z,98093.97
2023-05-07T03:37:06.826Z,98098.19
2023-05-07T03:39:37.004Z,98097.97
2023-05-07T03:42:10.465Z,98107.56
2023-05-07T03:44:41.548Z,98099.91
2023-05-07T03:47:11.824Z,98104.69
2023-05-07T03:49:42.917Z,98110.81
2023-05-07T03:52:13.324Z,98120.22
2023-05-07T03:54:43.669Z,98118.50
2023-05-07T03:57:18.928Z,98112.09
2023-05-07T03:59:49.160Z,98120.03
2023-05-07T04:02:19.652Z,98124.16
2023-05-07T04:04:50.220Z,98130.47
2023-05-07T04:07:21.655Z,98125.66
2023-05-07T04:09:54.150Z,98130.00
2023-05-07T04:12:27.281Z,98128.19
2023-05-07T04:14:57.521Z,98124.16
2023-05-07T04:17:28.202Z,98134.22
2023-05-07T04:19:58.468Z,98137.28
2023-05-07T04:22:29.751Z,98125.97
2023-05-07T04:25:00.304Z,98116.28
2023-05-07T04:27:33.917Z,98121.84
2023-05-07T04:30:04.099Z,98129.34
2023-05-07T04:32:38.817Z,98131.34
2023-05-07T04:35:10.618Z,98129.50
2023-05-07T04:37:41.291Z,98130.00
2023-05-07T04:40:12.670Z,98122.91
2023-05-07T04:42:45.820Z,98122.06
2023-05-07T04:45:16.548Z,98121.75
2023-05-07T04:47:48.953Z,98126.16
2023-05-07T04:50:20.525Z,98137.59
2023-05-07T04:52:52.451Z,98135.56
2023-05-07T04:55:22.936Z,98139.91
2023-05-07T04:57:56.852Z,98143.22
2023-05-07T05:00:28.279Z,98147.16
2023-05-07T05:03:01.144Z,98149.53
2023-05-07T05:05:32.822Z,98150.59
2023-05-07T05:08:03.799Z,98149.84
2023-05-07T05:10:34.009Z,98154.34
2023-05-07T05:13:06.871Z,98151.47
2023-05-07T05:15:37.195Z,98157.53
2023-05-07T05:18:07.711Z,98159.25
2023-05-07T05:20:39.768Z,98153.38
2023-05-07T05:23:11.690Z,98161.47
2023-05-07T05:25:41.967Z,98162.50
2023-05-07T05:28:17.424Z,98167.38
2023-05-07T05:30:47.648Z,98169.69
2023-05-07T05:33:18.119Z,98166.44
2023-05-07T05:35:48.346Z,98167.00
2023-05-07T05:38:19.029Z,98170.56
2023-05-07T05:40:49.549Z,98175.16
2023-05-07T05:43:22.360Z,98174.94
2023-05-07T05:45:52.815Z,98180.81
2023-05-07T05:48:23.892Z,98180.50
2023-05-07T05:50:54.247Z,98174.94
2023-05-07T05:53:24.557Z,98190.22
2023-05-07T05:55:54.928Z,98184.28
2023-05-07T05:58:28.624Z,98196.47
2023-05-07T06:01:04.034Z,98204.19
2023-05-07T06:03:34.742Z,98196.91
2023-05-07T06:06:09.599Z,98209.94
2023-05-07T06:08:39.798Z,98208.78
2023-05-07T06:11:10.485Z,98202.34
2023-05-07T06:13:46.138Z,98206.13
2023-05-07T06:16:16.587Z,98192.03
2023-05-07T06:18:47.828Z,98193.78
2023-05-07T06:21:19.399Z,98195.69
2023-05-07T06:23:49.585Z,98198.47
2023-05-07T06:26:19.787Z,98202.31
2023-05-07T06:29:00.130Z,98202.75
2023-05-07T06:31:33.812Z,98203.44
2023-05-07T06:34:10.285Z,98204.19
2023-05-07T06:36:41.984Z,98211.00
2023-05-07T06:39:41.440Z,98217.34
2023-05-07T06:42:11.610Z,98215.63
2023-05-07T06:44:48.148Z,98217.06
2023-05-07T06:47:20.844Z,98217.06
2023-05-07T06:49:55.174Z,98219.94
2023-05-07T06:52:28.592Z,98211.31
2023-05-07T06:54:59.103Z,98223.97
2023-05-07T06:57:30.420Z,98224.56
2023-05-07T07:00:03.272Z,98223.69
2023-05-07T07:02:35.762Z,98233.34
2023-05-07T07:05:06.025Z,98223.19
2023-05-07T07:07:36.395Z,98227.53
2023-05-07T07:10:07.257Z,98229.72
2023-05-07T07:12:38.446Z,98226.47
2023-05-07T07:15:12.291Z,98225.31
2023-05-07T07:17:42.743Z,98225.56
2023-05-07T07:20:14.290Z,98221.75
2023-05-07T07:22:46.970Z,98228.84
2023-05-07T07:25:18.446Z,98235.94
2023-05-07T07:27:49.038Z,98232.00
2023-05-07T07:30:22.460Z,98231.91
2023-05-07T07:32:54.015Z,98240.47
2023-05-07T07:35:25.775Z,98246.13
2023-05-07T07:37:56.746Z,98246.97
2023-05-07T07:40:27.278Z,98247.38
2023-05-07T07:42:58.358Z,98248.50
2023-05-07T07:45:31.554Z,98250.06
2023-05-07T07:48:01.980Z,98251.97
2023-05-07T07:50:44.464Z,98253.50
2023-05-07T07:53:18.705Z,98255.31
2023-05-07T07:55:49.221Z,98258.66
2023-05-07T07:58:23.320Z,98255.19
2023-05-07T08:00:57.163Z,98255.63
2023-05-07T08:03:29.347Z,98260.97
2023-05-07T08:06:02.457Z,98254.16
2023-05-07T08:08:34.109Z,98255.38
2023-05-07T08:11:04.393Z,98249.94
2023-05-07T08:13:37.156Z,98257.44
2023-05-07T08:16:10.406Z,98256.78
2023-05-07T08:18:41.217Z,98254.47
2023-05-07T08:21:12.272Z,98261.47
2023-05-07T08:23:43.267Z,98257.16
2023-05-07T08:26:13.715Z,98259.81
2023-05-07T08:28:43.999Z,98260.53
2023-05-07T08:31:16.898Z,98259.81
2023-05-07T08:33:48.764Z,98259.47
2023-05-07T08:36:20.490Z,98260.69
2023-05-07T08:38:50.981Z,98267.06
2023-05-07T08:41:21.585Z,98264.63
2023-05-07T08:43:53.575Z,98261.72
2023-05-07T08:46:27.117Z,98268.19
2023-05-07T08:48:59.819Z,98265.19
2023-05-07T08:51:30.792Z,98267.97
2023-05-07T08:54:02.253Z,98268.94
2023-05-07T08:56:36.042Z,98270.06
2023-05-07T08:59:06.555Z,98266.50
2023-05-07T09:01:39.953Z,98267.38
2023-05-07T09:04:10.890Z,98268.13
2023-05-07T09:06:43.221Z,98271.59
2023-05-07T09:09:18.744Z,98271.34
2023-05-07T09:11:49.610Z,98273.19
2023-05-07T09:14:25.765Z,98280.88
2023-05-07T09:16:59.581Z,98266.69
2023-05-07T09:19:30.941Z,98274.53
2023-05-07T09:22:04.949Z,98277.66
2023-05-07T09:24:44.858Z,98275.06
2023-05-07T09:27:15.688Z,98273.50
2023-05-07T09:29:51.053Z,98277.03
2023-05-07T09:32:28.535Z,98277.09
2023-05-07T09:34:58.946Z,98279.91
2023-05-07T09:37:30.906Z,98267.34
2023-05-07T09:40:01.238Z,98267.38
2023-05-07T09:42:33.848Z,98271.97
2023-05-07T09:45:10.579Z,98264.84
2023-05-07T09:47:49.316Z,98269.81
2023-05-07T09:50:21.898Z,98266.75
2023-05-07T09:52:52.970Z,98262.88
2023-05-07T09:55:23.692Z,98263.75
2023-05-07T09:57:55.139Z,98265.31
2023-05-07T10:00:26.634Z,98270.00
2023-05-07T10:03:07.682Z,98265.69
2023-05-07T10:05:50.264Z,98265.47
2023-05-07T10:08:24.697Z,98272.66
2023-05-07T10:10:59.543Z,98272.81
2023-05-07T10:13:32.094Z,98271.66
2023-05-07T10:16:06.601Z,98266.38
2023-05-07T10:18:47.370Z,98280.75
2023-05-07T10:21:24.494Z,98270.34
2023-05-07T10:24:02.928Z,98275.78
2023-05-07T10:26:36.883Z,98277.13
2023-05-07T10:29:11.450Z,98263.84
2023-05-07T10:31:58.015Z,98258.97
2023-05-07T10:34:47.606Z,98275.66
2023-05-07T10:37:18.133Z,98267.31
2023-05-07T10:39:49.322Z,98260.50
2023-05-07T10:42:19.815Z,98260.59
2023-05-07T10:44:54.728Z,98258.19
2023-05-07T10:47:29.411Z,98263.94
2023-05-07T10:50:29.688Z,98254.88
2023-05-07T10:53:27.163Z,98261.13
2023-05-07T10:56:33.107Z,98246.47
2023-05-07T10:59:43.335Z,98238.44
2023-05-07T11:02:22.286Z,98244.44
2023-05-07T11:05:24.787Z,98236.47
2023-05-07T11:08:20.312Z,98232.88
2023-05-07T11:11:01.012Z,98235.84
2023-05-07T11:13:47.608Z,98234.44
2023-05-07T11:16:39.049Z,98239.97
2023-05-07T11:19:19.279Z,98237.16
2023-05-07T11:21:52.982Z,98230.75
2023-05-07T11:24:48.100Z,98231.56
2023-05-07T11:27:18.599Z,98237.47
2023-05-07T11:29:51.333Z,98236.34
2023-05-07T11:32:26.883Z,98231.16
2023-05-07T11:34:58.431Z,98229.78
2023-05-07T11:37:31.017Z,98233.06
2023-05-07T11:40:15.333Z,98227.84
2023-05-07T11:42:46.099Z,98228.31
2023-05-07T11:45:16.257Z,98233.56
2023-05-07T11:47:46.601Z,98241.72
2023-05-07T11:50:19.799Z,98238.81
2023-05-07T11:52:55.373Z,98239.34
2023-05-07T11:55:28.511Z,98235.69
2023-05-07T11:57:58.678Z,98229.84
2023-05-07T12:00:29.054Z,98234.06
2023-05-07T12:02:59.712Z,98232.63
2023-05-07T12:05:30.299Z,98238.00
2023-05-07T12:08:01.013Z,98238.28
2023-05-07T12:10:34.137Z,98237.56
2023-05-07T12:13:04.480Z,98236.97
2023-05-07T12:15:34.852Z,98236.97
2023-05-07T12:18:05.809Z,98221.56
2023-05-07T12:20:36.124Z,98230.41
2023-05-07T12:23:06.898Z,98223.38
2023-05-07T12:25:43.587Z,98221.25
2023-05-07T12:28:17.364Z,98228.09
2023-05-07T12:30:48.504Z,98211.53
2023-05-07T12:33:22.860Z,98219.69
2023-05-07T12:35:53.073Z,98215.38
2023-05-07T12:38:23.244Z,98228.22
2023-05-07T12:40:58.450Z,98227.84
2023-05-07T12:43:30.119Z,98228.69
2023-05-07T12:46:01.297Z,98224.84
2023-05-07T12:48:31.524Z,98222.34
2023-05-07T12:51:03.461Z,98227.13
2023-05-07T12:53:34.252Z,98221.63
2023-05-07T12:56:10.188Z,98221.41
2023-05-07T12:58:40.992Z,98216.44
2023-05-07T13:01:16.680Z,98217.47
2023-05-07T13:03:52.687Z,98219.88
2023-05-07T13:06:23.086Z,98222.88
2023-05-07T13:08:53.229Z,98228.84
2023-05-07T13:11:26.987Z,98227.41
2023-05-07T13:13:57.153Z,98219.34
2023-05-07T13:16:27.372Z,98225.16
2023-05-07T13:18:57.548Z,98223.13
2023-05-07T13:21:28.260Z,98218.69
2023-05-07T13:23:59.234Z,98219.31
2023-05-07T13:26:33.830Z,98211.47
2023-05-07T13:29:04.037Z,98209.19
2023-05-07T13:31:35.070Z,98209.38
2023-05-07T13:34:05.355Z,98205.78
2023-05-07T13:36:38.346Z,98209.38
2023-05-07T13:39:08.655Z,98201.16
2023-05-07T13:41:41.749Z,98200.66
2023-05-07T13:44:12.039Z,98197.66
2023-05-07T13:46:42.244Z,98201.06
2023-05-07T13:49:13.664Z,98196.69
2023-05-07T13:51:43.811Z,98194.91
2023-05-07T13:54:13.952Z,98185.69
2023-05-07T13:56:46.756Z,98191.03
2023-05-07T13:59:19.168Z,98190.13
2023-05-07T14:01:49.412Z,98189.31
2023-05-07T14:04:19.606Z,98191.75
2023-05-07T14:06:49.701Z,98178.47
2023-05-07T14:09:19.886Z,98184.94
2023-05-07T14:11:53.271Z,98181.47
2023-05-07T14:14:23.654Z,98188.00
2023-05-07T14:16:53.843Z,98186.50
2023-05-07T14:19:24.736Z,98185.94
2023-05-07T14:21:55.293Z,98187.06
2023-05-07T14:24:37.549Z,98179.47
2023-05-07T14:27:11.252Z,98173.66
2023-05-07T14:29:41.615Z,98181.38
2023-05-07T14:32:11.840Z,98183.19
2023-05-07T14:34:42.124Z,98180.25
2023-05-07T14:37:12.337Z,98184.19
2023-05-07T14:39:42.781Z,98174.13
2023-05-07T14:42:15.701Z,98182.00
2023-05-07T14:44:46.715Z,98179.13
2023-05-07T14:47:19.059Z,98182.06
2023-05-07T14:49:50.166Z,98190.28
2023-05-07T14:52:20.325Z,98194.47
2023-05-07T14:54:50.469Z,98190.28
2023-05-07T14:57:23.771Z,98194.28
2023-05-07T14:59:54.012Z,98187.25
2023-05-07T15:02:24.265Z,98191.75
2023-05-07T15:04:54.480Z,98203.97
2023-05-07T15:07:24.635Z,98210.84
2023-05-07T15:09:55.432Z,98204.50
2023-05-07T15:12:28.393Z,98212.84
2023-05-07T15:14:58.534Z,98208.00
2023-05-07T15:17:28.758Z,98208.06
2023-05-07T15:19:58.958Z,98212.22
2023-05-07T15:22:29.185Z,98201.25
2023-05-07T15:24:59.992Z,98210.72
2023-05-07T15:27:33.149Z,98206.31
2023-05-07T15:30:03.458Z,98203.88
2023-05-07T15:32:35.397Z,98213.09
2023-05-07T15:35:05.684Z,98205.84
2023-05-07T15:37:36.029Z,98213.13
2023-05-07T15:40:07.794Z,98209.97
2023-05-07T15:42:40.624Z,98219.34
2023-05-07T15:45:12.928Z,98217.69
2023-05-07T15:47:43.433Z,98210.00
2023-05-07T15:50:14.395Z,98209.19
2023-05-07T15:52:46.174Z,98204.66
2023-05-07T15:55:16.535Z,98204.59
2023-05-07T15:57:49.347Z,98209.03
2023-05-07T16:00:20.023Z,98218.03
2023-05-07T16:02:50.260Z,98207.00
2023-05-07T16:05:20.479Z,98204.31
2023-05-07T16:07:50.770Z,98208.50
2023-05-07T16:10:21.330Z,98204.25
2023-05-07T16:12:54.533Z,98207.34
2023-05-07T16:15:25.185Z,98219.63
2023-05-07T16:17:58.504Z,98211.06
2023-05-07T16:20:32.645Z,98216.69
2023-05-07T16:23:03.004Z,98217.03
2023-05-07T16:25:33.300Z,98224.44
2023-05-07T16:28:06.728Z,98221.63
2023-05-07T16:30:36.986Z,98226.78
2023-05-07T16:33:08.363Z,98222.75
2023-05-07T16:35:38.545Z,98223.78
2023-05-07T16:38:10.581Z,98221.50
2023-05-07T16:40:41.899Z,98224.31
2023-05-07T16:43:14.766Z,98230.19
2023-05-07T16:45:44.925Z,98230.19
2023-05-07T16:48:15.112Z,98229.69
2023-05-07T16:50:45.729Z,98223.06
2023-05-07T16:53:16.079Z,98234.03
2023-05-07T16:55:46.483Z,98227.91
2023-05-07T16:58:19.312Z,98240.13
2023-05-07T17:00:51.202Z,98236.81
2023-05-07T17:03:22.251Z,98231.44
2023-05-07T17:05:52.726Z,98239.63
2023-05-07T17:08:22.904Z,98236.28
2023-05-07T17:10:53.080Z,98236.03
2023-05-07T17:13:26.022Z,98239.81
2023-05-07T17:15:56.293Z,98236.47
2023-05-07T17:18:26.553Z,98239.75
2023-05-07T17:20:56.803Z,98244.56
2023-05-07T17:23:27.153Z,98250.41
2023-05-07T17:25:57.344Z,98246.56
2023-05-07T17:28:32.851Z,98254.19
2023-05-07T17:31:02.964Z,98242.22
2023-05-07T17:33:33.352Z,98256.91
2023-05-07T17:36:04.015Z,98261.72
2023-05-07T17:38:34.455Z,98261.19
2023-05-07T17:41:04.916Z,98262.97
2023-05-07T17:43:37.703Z,98263.69
2023-05-07T17:46:08.075Z,98272.50
2023-05-07T17:48:41.014Z,98282.78
2023-05-07T17:51:11.331Z,98276.09
2023-05-07T17:53:41.487Z,98281.50
2023-05-07T17:56:12.964Z,98285.69
2023-05-07T17:58:58.545Z,98289.16
2023-05-07T18:01:29.793Z,98287.78
2023-05-07T18:04:00.763Z,98299.31
2023-05-07T18:06:30.975Z,98298.06
2023-05-07T18:09:01.161Z,98302.00
2023-05-07T18:11:33.445Z,98298.28
2023-05-07T18:14:06.356Z,98307.63
2023-05-07T18:16:36.626Z,98307.78
2023-05-07T18:19:06.800Z,98305.00
2023-05-07T18:21:37.087Z,98308.44
2023-05-07T18:24:07.731Z,98302.72
2023-05-07T18:26:37.935Z,98307.09
2023-05-07T18:29:11.035Z,98306.25
2023-05-07T18:31:41.204Z,98305.91
2023-05-07T18:34:11.322Z,98307.50
2023-05-07T18:36:41.645Z,98324.38
2023-05-07T18:39:12.032Z,98319.50
2023-05-07T18:41:42.994Z,98317.13
2023-05-07T18:44:15.822Z,98327.19
2023-05-07T18:46:48.033Z,98326.56
2023-05-07T18:49:18.345Z,98324.66
2023-05-07T18:51:48.766Z,98330.16
2023-05-07T18:54:19.104Z,98325.56
2023-05-07T18:56:49.325Z,98323.63
2023-05-07T18:59:22.600Z,98331.81
2023-05-07T19:01:53.168Z,98332.75
2023-05-07T19:04:24.697Z,98330.75
2023-05-07T19:06:54.941Z,98341.50
2023-05-07T19:09:25.170Z,98337.59
2023-05-07T19:11:55.471Z,98343.34
2023-05-07T19:14:28.360Z,98343.94
2023-05-07T19:16:58.947Z,98344.50
2023-05-07T19:19:29.979Z,98355.44
2023-05-07T19:22:00.210Z,98354.25
2023-05-07T19:24:30.433Z,98363.47
2023-05-07T19:27:00.835Z,98360.84
2023-05-07T19:29:34.521Z,98373.84
2023-05-07T19:32:04.715Z,98373.13
2023-05-07T19:34:36.013Z,98368.16
2023-05-07T19:37:06.775Z,98365.56
2023-05-07T19:39:37.082Z,98368.78
2023-05-07T19:42:07.502Z,98371.16
2023-05-07T19:44:40.315Z,98365.00
2023-05-07T19:47:10.641Z,98378.84
2023-05-07T19:49:40.784Z,98388.69
2023-05-07T19:52:10.963Z,98392.34
2023-05-07T19:54:41.172Z,98392.88
2023-05-07T19:57:11.520Z,98400.56
2023-05-07T19:59:44.309Z,98400.75
2023-05-07T20:02:15.940Z,98401.16
2023-05-07T20:04:46.359Z,98407.53
2023-05-07T20:07:16.663Z,98410.69
2023-05-07T20:09:46.839Z,98407.72
2023-05-07T20:12:18.221Z,98415.75
2023-05-07T20:14:51.027Z,98412.59
2023-05-07T20:17:21.198Z,98420.38
2023-05-07T20:19:51.442Z,98418.38
2023-05-07T20:22:21.777Z,98416.69
2023-05-07T20:24:51.960Z,98414.56
2023-05-07T20:27:24.992Z,98407.63
2023-05-07T20:29:57.871Z,98418.16
2023-05-07T20:32:28.400Z,98416.31
2023-05-07T20:34:58.779Z,98418.19
2023-05-07T20:37:29.762Z,98410.22
2023-05-07T20:40:00.010Z,98409.13
2023-05-07T20:42:30.359Z,98417.13
2023-05-07T20:45:04.158Z,98413.47
2023-05-07T20:47:35.704Z,98418.09
2023-05-07T20:50:06.210Z,98418.13
2023-05-07T20:52:36.572Z,98412.91
2023-05-07T20:55:07.330Z,98413.22
2023-05-07T20:57:37.514Z,98418.63
2023-05-07T21:00:11.839Z,98422.31
2023-05-07T21:02:42.236Z,98421.56
2023-05-07T21:05:12.932Z,98421.72
2023-05-07T21:07:43.149Z,98427.59
2023-05-07T21:10:13.877Z,98433.13
2023-05-07T21:12:44.417Z,98432.53
2023-05-07T21:15:17.476Z,98434.38
2023-05-07T21:17:47.663Z,98435.00
2023-05-07T21:20:18.141Z,98441.78
2023-05-07T21:22:48.437Z,98439.94
2023-05-07T21:25:18.922Z,98452.28
2023-05-07T21:27:49.151Z,98446.88
2023-05-07T21:30:22.122Z,98447.94
2023-05-07T21:32:53.187Z,98451.78
2023-05-07T21:35:23.544Z,98454.28
2023-05-07T21:37:53.686Z,98454.41
2023-05-07T21:40:24.039Z,98458.72
2023-05-07T21:42:54.237Z,98465.50
2023-05-07T21:45:27.073Z,98469.81
2023-05-07T21:47:57.340Z,98479.06
2023-05-07T21:50:27.633Z,98476.28
2023-05-07T21:52:57.885Z,98478.78
2023-05-07T21:55:28.108Z,98476.13
2023-05-07T21:58:05.489Z,98471.81
2023-05-07T22:00:39.372Z,98472.59
2023-05-07T22:03:09.947Z,98467.38
2023-05-07T22:05:40.341Z,98478.00
2023-05-07T22:08:10.566Z,98474.75
2023-05-07T22:10:41.186Z,98476.28
2023-05-07T22:13:11.503Z,98475.38
2023-05-07T22:15:53.605Z,98479.38
2023-05-07T22:18:26.905Z,98478.94
2023-05-07T22:20:57.113Z,98478.44
2023-05-07T22:23:27.499Z,98478.63
2023-05-07T22:25:57.711Z,98479.38
2023-05-07T22:28:27.932Z,98477.06
2023-05-07T22:31:00.741Z,98492.31
2023-05-07T22:33:30.929Z,98487.38
2023-05-07T22:36:01.074Z,98482.16
2023-05-07T22:38:31.478Z,98487.72
2023-05-07T22:41:02.355Z,98484.31
2023-05-07T22:43:32.445Z,98488.94
2023-05-07T22:46:05.402Z,98483.56
2023-05-07T22:48:35.908Z,98485.84
2023-05-07T22:51:06.683Z,98486.31
2023-05-07T22:53:37.019Z,98484.31
2023-05-07T22:56:11.723Z,98489.09
2023-05-07T22:58:41.969Z,98486.63
2023-05-07T23:01:18.960Z,98490.16
2023-05-07T23:03:49.265Z,98493.09
2023-05-07T23:06:19.510Z,98492.94
2023-05-07T23:08:49.949Z,98485.53
2023-05-07T23:11:21.249Z,98485.84
2023-05-07T23:13:51.358Z,98493.06
2023-05-07T23:16:24.300Z,98497.31
2023-05-07T23:18:54.546Z,98491.78
2023-05-07T23:21:25.129Z,98494.53
2023-05-07T23:23:56.082Z,98493.78
2023-05-07T23:26:26.963Z,98489.19
2023-05-07T23:28:57.195Z,98494.53
2023-05-07T23:31:30.327Z,98496.38
2023-05-07T23:34:00.684Z,98497.13
2023-05-07T23:36:31.662Z,98495.59
2023-05-07T23:39:01.864Z,98498.97
2023-05-07T23:41:32.200Z,98498.03
2023-05-07T23:44:05.677Z,98489.44
2023-05-07T23:46:38.896Z,98485.72
2023-05-07T23:49:09.346Z,98487.84
2023-05-07T23:51:39.732Z,98488.13
2023-05-07T23:54:09.988Z,98480.56
2023-05-07T23:56:40.276Z,98487.50
2023-05-07T23:59:12.921Z,98484.41
